Time;durP1;ratioP1;P1;durP2;ratioP2;P2;SDS_P1;SDS_P2;PMS_P1;PMS_P2;Temp;Humidity;BMP_temperature;BMP_pressure;BME280_temperature;BME280_humidity;BME280_pressure;Samples;Min_cycle;Max_cycle;Signal;HPM_P1;HPM_P2
2022/01/27 00:00:45;;;;;;;0.93;0.93;;;0.00;99.90;;;;;;5103634;28;20184;-52
2022/01/27 00:03:30;;;;;;;4.50;1.80;;;0.00;99.90;;;;;;5085021;28;20185;-53
2022/01/27 00:06:05;;;;;;;3.27;2.07;;;0.00;99.90;;;;;;5085999;28;20300;-50
2022/01/27 00:11:13;;;;;;;5.33;2.93;;;-0.10;99.90;;;;;;5101272;28;20241;-53
2022/01/27 00:14:00;;;;;;;3.63;2.50;;;-0.10;99.90;;;;;;5086352;28;20185;-51
2022/01/27 00:16:29;;;;;;;4.53;1.70;;;-0.10;99.90;;;;;;5085114;28;20189;-50
2022/01/27 00:18:56;;;;;;;3.93;1.53;;;-0.10;99.90;;;;;;5086002;28;20181;-51
2022/01/27 00:21:28;;;;;;;3.67;2.77;;;-0.10;99.90;;;;;;5085765;28;20197;-51
2022/01/27 00:23:55;;;;;;;3.17;2.00;;;-0.20;99.90;;;;;;5084408;28;20189;-59
2022/01/27 00:26:21;;;;;;;3.50;2.47;;;-0.20;99.90;;;;;;5086071;28;20236;-53
2022/01/27 00:28:48;;;;;;;2.80;2.13;;;-0.20;99.90;;;;;;5085165;28;20238;-56
2022/01/27 00:31:15;;;;;;;1.10;1.00;;;-0.20;99.90;;;;;;5087215;28;20240;-54
2022/01/27 00:33:41;;;;;;;1.80;1.63;;;-0.20;99.90;;;;;;5084487;28;20185;-58
2022/01/27 00:36:07;;;;;;;1.30;1.27;;;-0.20;99.90;;;;;;5085744;28;20264;-63
2022/01/27 00:38:33;;;;;;;3.77;1.80;;;-0.20;99.90;;;;;;5085203;28;20584;-60
2022/01/27 00:40:59;;;;;;;2.37;1.37;;;-0.20;99.90;;;;;;5081425;28;20193;-58
2022/01/27 00:43:25;;;;;;;2.10;2.00;;;-0.20;99.90;;;;;;5072339;28;20189;-48
2022/01/27 00:45:51;;;;;;;1.60;1.50;;;-0.20;99.90;;;;;;5064908;28;20225;-49
2022/01/27 00:48:18;;;;;;;3.60;2.33;;;-0.20;99.90;;;;;;5068358;28;20251;-53
2022/01/27 00:50:53;;;;;;;1.97;1.67;;;-0.20;99.90;;;;;;5066320;28;20197;-57
2022/01/27 00:54:09;;;;;;;1.67;1.63;;;-0.20;99.90;;;;;;5073765;28;20182;-62
2022/01/27 00:56:30;;;;;;;1.13;1.13;;;-0.20;99.90;;;;;;5077721;28;20320;-47
2022/01/27 00:59:51;;;;;;;2.07;1.33;;;-0.20;99.90;;;;;;5073720;28;20241;-53
2022/01/27 01:01:57;;;;;;;4.47;1.90;;;-0.30;99.90;;;;;;5074331;28;20255;-53
2022/01/27 01:04:28;;;;;;;1.70;1.40;;;-0.30;99.90;;;;;;5065170;28;20236;-58
2022/01/27 01:06:55;;;;;;;1.40;1.10;;;-0.30;99.90;;;;;;5075191;28;20214;-53
2022/01/27 01:14:56;;;;;;;2.30;1.80;;;-0.30;99.90;;;;;;5083140;28;20197;-57
2022/01/27 01:17:45;;;;;;;2.77;1.50;;;-0.30;99.90;;;;;;5067136;28;20178;-56
2022/01/27 01:30:59;;;;;;;2.33;2.07;;;-0.50;99.90;;;;;;5095226;28;20178;-61
2022/01/27 01:33:32;;;;;;;4.17;2.40;;;-0.40;99.90;;;;;;5066346;28;20190;-57
2022/01/27 01:36:12;;;;;;;4.53;2.73;;;-0.40;99.90;;;;;;5076368;28;20174;-55
2022/01/27 01:38:37;;;;;;;5.27;2.60;;;-0.30;99.90;;;;;;5074787;28;20225;-55
2022/01/27 01:41:03;;;;;;;4.07;3.20;;;-0.30;99.90;;;;;;5075961;28;20182;-53
2022/01/27 01:43:29;;;;;;;2.23;1.43;;;-0.20;99.90;;;;;;5066987;28;20242;-57
2022/01/27 01:45:55;;;;;;;3.10;2.80;;;-0.30;99.90;;;;;;5066820;28;20244;-56
2022/01/27 01:48:21;;;;;;;6.17;2.23;;;-0.40;99.90;;;;;;5076026;28;20186;-60
2022/01/27 01:50:47;;;;;;;4.43;2.53;;;-0.40;99.90;;;;;;5065244;28;20174;-53
2022/01/27 01:53:13;;;;;;;6.23;2.07;;;-0.30;99.90;;;;;;5075787;28;20192;-49
2022/01/27 01:55:39;;;;;;;2.23;1.80;;;-0.30;99.90;;;;;;5065897;28;20197;-53
2022/01/27 01:58:05;;;;;;;4.10;3.80;;;-0.30;99.90;;;;;;5067258;28;20170;-50
2022/01/27 02:00:31;;;;;;;2.20;2.10;;;-0.30;99.90;;;;;;5067112;28;20185;-50
2022/01/27 02:02:57;;;;;;;3.27;2.63;;;-0.30;99.90;;;;;;5075606;28;20189;-52
2022/01/27 02:05:28;;;;;;;2.80;1.57;;;-0.20;99.90;;;;;;5075541;28;20166;-53
2022/01/27 02:08:40;;;;;;;1.70;1.53;;;-0.30;99.90;;;;;;5065802;28;20251;-52
2022/01/27 02:19:28;;;;;;;3.63;2.37;;;-0.20;99.90;;;;;;5052068;28;20183;-50
2022/01/27 02:21:59;;;;;;;5.53;2.00;;;-0.20;99.90;;;;;;5054141;28;20201;-51
2022/01/27 02:24:28;;;;;;;5.77;1.90;;;-0.20;99.90;;;;;;5036048;28;20175;-53
2022/01/27 02:26:56;;;;;;;5.40;2.87;;;-0.20;99.90;;;;;;5044955;28;20218;-47
2022/01/27 02:29:23;;;;;;;4.90;3.30;;;-0.30;99.90;;;;;;5027704;28;20182;-51
2022/01/27 02:31:51;;;;;;;3.33;2.57;;;-0.40;99.90;;;;;;5045070;28;20179;-60
2022/01/27 02:34:17;;;;;;;2.93;2.73;;;-0.40;99.90;;;;;;5043496;28;20194;-49
2022/01/27 02:36:43;;;;;;;4.83;2.03;;;-0.40;99.90;;;;;;5051687;28;20182;-49
2022/01/27 02:39:10;;;;;;;4.10;3.07;;;-0.30;99.90;;;;;;5025552;28;20246;-46
2022/01/27 02:41:41;;;;;;;3.80;2.67;;;-0.30;99.90;;;;;;5061765;28;20193;-50
2022/01/27 02:44:07;;;;;;;4.07;3.63;;;-0.30;99.90;;;;;;5044691;28;20259;-50
2022/01/27 02:46:45;;;;;;;4.47;2.17;;;-0.20;99.90;;;;;;5061920;28;20221;-61
2022/01/27 02:49:11;;;;;;;6.70;1.53;;;-0.20;99.90;;;;;;5082300;28;20185;-52
2022/01/27 02:51:37;;;;;;;4.63;2.77;;;-0.10;99.90;;;;;;5069633;28;20276;-59
2022/01/27 02:54:04;;;;;;;10.30;2.37;;;-0.30;99.90;;;;;;5066515;28;20184;-50
2022/01/27 02:56:31;;;;;;;12.10;3.87;;;-0.40;99.90;;;;;;5073302;28;20195;-50
2022/01/27 02:58:57;;;;;;;2.97;2.80;;;-0.30;99.90;;;;;;5066729;28;20604;-49
2022/01/27 03:01:23;;;;;;;2.97;2.53;;;-0.30;99.90;;;;;;5074573;28;20185;-52
2022/01/27 03:03:49;;;;;;;4.10;2.27;;;-0.30;99.90;;;;;;5065999;28;20182;-49
2022/01/27 03:06:15;;;;;;;3.80;3.40;;;-0.30;99.90;;;;;;5066261;28;20274;-52
2022/01/27 03:08:41;;;;;;;2.73;2.47;;;-0.30;99.90;;;;;;5080871;28;20178;-64
2022/01/27 03:11:13;;;;;;;4.73;1.87;;;-0.40;99.90;;;;;;5066223;28;20209;-57
2022/01/27 03:13:40;;;;;;;5.63;2.67;;;-0.30;99.90;;;;;;5072955;28;20178;-50
2022/01/27 03:16:08;;;;;;;4.53;2.87;;;-0.40;99.90;;;;;;5065581;28;20185;-50
2022/01/27 03:18:34;;;;;;;6.50;3.17;;;-0.40;99.90;;;;;;5073147;28;20178;-52
2022/01/27 03:21:00;;;;;;;4.47;3.00;;;-0.40;99.90;;;;;;5065647;28;20208;-55
2022/01/27 03:23:26;;;;;;;2.53;2.00;;;-0.40;99.90;;;;;;5074354;28;20166;-53
2022/01/27 03:25:51;;;;;;;9.00;2.87;;;-0.40;99.90;;;;;;5068020;28;20210;-59
2022/01/27 03:28:19;;;;;;;7.90;3.53;;;-0.30;99.90;;;;;;5080379;28;20174;-62
2022/01/27 03:30:45;;;;;;;4.80;2.67;;;-0.40;99.90;;;;;;5082336;28;20186;-55
2022/01/27 03:33:10;;;;;;;3.03;1.60;;;-0.40;99.90;;;;;;5083508;28;20207;-57
2022/01/27 03:35:36;;;;;;;4.20;3.17;;;-0.40;99.90;;;;;;5081882;28;20217;-49
2022/01/27 03:38:02;;;;;;;2.53;2.27;;;-0.40;99.90;;;;;;5083114;28;20186;-61
2022/01/27 03:40:28;;;;;;;2.13;1.87;;;-0.40;99.90;;;;;;5082670;28;20286;-61
2022/01/27 03:43:04;;;;;;;5.57;2.67;;;-0.40;99.90;;;;;;5082060;28;20189;-54
2022/01/27 03:45:30;;;;;;;2.00;1.73;;;-0.40;99.90;;;;;;5082845;28;20181;-60
2022/01/27 03:47:56;;;;;;;7.70;3.37;;;-0.30;99.90;;;;;;5080905;28;20246;-50
2022/01/27 03:50:22;;;;;;;4.50;3.80;;;-0.30;99.90;;;;;;5082742;28;20197;-55
2022/01/27 03:52:48;;;;;;;5.73;3.00;;;-0.40;99.90;;;;;;5082631;28;20189;-60
2022/01/27 03:55:13;;;;;;;8.17;3.07;;;-0.40;99.90;;;;;;5083329;28;20189;-59
2022/01/27 03:57:39;;;;;;;6.23;2.00;;;-0.40;99.90;;;;;;5082084;28;20182;-60
2022/01/27 04:00:07;;;;;;;8.50;3.40;;;-0.30;99.90;;;;;;5082141;28;20221;-62
2022/01/27 04:02:36;;;;;;;8.77;4.90;;;-0.30;99.90;;;;;;5082589;28;20193;-56
2022/01/27 04:05:02;;;;;;;5.30;3.83;;;-0.50;99.90;;;;;;5081241;28;20174;-56
2022/01/27 04:07:27;;;;;;;3.20;2.77;;;-0.40;99.90;;;;;;5082635;28;20296;-56
2022/01/27 04:09:53;;;;;;;2.37;2.20;;;-0.40;99.90;;;;;;5080824;28;20196;-52
2022/01/27 04:12:19;;;;;;;3.10;2.27;;;-0.40;99.90;;;;;;5082733;28;20220;-50
2022/01/27 04:14:45;;;;;;;6.87;3.23;;;-0.40;99.90;;;;;;5081121;28;20186;-56
2022/01/27 04:17:10;;;;;;;3.73;2.20;;;-0.30;99.90;;;;;;5082026;28;20273;-53
2022/01/27 04:19:36;;;;;;;8.63;3.10;;;-0.30;99.90;;;;;;5082289;28;20211;-54
2022/01/27 04:22:02;;;;;;;10.17;4.77;;;-0.30;99.90;;;;;;5085880;28;20223;-48
2022/01/27 04:24:30;;;;;;;2.70;2.20;;;-0.40;99.90;;;;;;5086986;28;20178;-57
2022/01/27 04:27:04;;;;;;;4.07;2.63;;;-0.40;99.90;;;;;;5085123;28;20217;-51
2022/01/27 04:29:33;;;;;;;5.70;3.47;;;-0.40;99.90;;;;;;5087089;28;20306;-56
2022/01/27 04:32:01;;;;;;;25.30;10.73;;;-0.40;99.90;;;;;;5086058;28;20213;-50
2022/01/27 04:34:27;;;;;;;3.37;3.07;;;-0.40;99.90;;;;;;5069802;28;20213;-52
2022/01/27 04:36:55;;;;;;;2.23;1.90;;;-0.30;99.90;;;;;;5086298;28;20188;-54
2022/01/27 04:39:38;;;;;;;2.60;2.40;;;-0.10;99.90;;;;;;5084926;28;20380;-53
2022/01/27 04:42:11;;;;;;;3.30;2.73;;;0.10;99.90;;;;;;5085807;28;20186;-53
2022/01/27 04:45:02;;;;;;;4.37;2.77;;;0.20;99.90;;;;;;5082987;28;20691;-53
2022/01/27 04:47:31;;;;;;;5.83;3.67;;;0.10;99.90;;;;;;5087394;28;20212;-52
2022/01/27 04:49:58;;;;;;;5.87;1.83;;;-0.10;99.90;;;;;;5072382;28;20182;-54
2022/01/27 04:52:25;;;;;;;4.67;3.07;;;-0.10;99.90;;;;;;5067330;28;20197;-48
2022/01/27 04:55:02;;;;;;;4.57;2.63;;;0.00;99.90;;;;;;5085447;28;20194;-58
2022/01/27 04:57:29;;;;;;;6.10;4.23;;;0.10;99.90;;;;;;5077304;28;20212;-55
2022/01/27 04:59:55;;;;;;;6.00;3.17;;;0.00;99.90;;;;;;5101265;28;20182;-57
2022/01/27 05:03:14;;;;;;;2.93;2.73;;;0.00;99.90;;;;;;5074491;28;20230;-59
2022/01/27 05:05:08;;;;;;;4.63;2.80;;;-0.10;99.90;;;;;;5077550;28;20323;-55
2022/01/27 05:07:34;;;;;;;18.57;10.43;;;0.00;99.90;;;;;;5068360;28;20202;-61
2022/01/27 05:10:09;;;;;;;4.30;2.53;;;0.10;99.90;;;;;;5066343;28;20194;-57
2022/01/27 05:12:42;;;;;;;5.90;3.13;;;0.10;99.90;;;;;;5091614;28;20184;-56
2022/01/27 05:15:08;;;;;;;4.13;1.70;;;-0.10;99.90;;;;;;5063748;28;20212;-58
2022/01/27 05:17:34;;;;;;;3.20;2.00;;;-0.10;99.90;;;;;;5068301;28;20170;-59
2022/01/27 05:20:00;;;;;;;4.50;2.83;;;-0.30;99.90;;;;;;5067373;28;20196;-62
2022/01/27 05:22:26;;;;;;;5.33;2.63;;;-0.10;99.90;;;;;;5075412;28;20182;-51
2022/01/27 05:24:52;;;;;;;4.40;2.23;;;-0.30;99.90;;;;;;5076118;28;20181;-55
2022/01/27 05:27:17;;;;;;;4.50;3.53;;;-0.30;99.90;;;;;;5074776;28;20210;-56
2022/01/27 05:29:43;;;;;;;5.00;2.40;;;-0.10;99.90;;;;;;5068205;28;20186;-53
2022/01/27 05:32:09;;;;;;;4.37;2.97;;;-0.20;99.90;;;;;;5065480;28;20178;-57
2022/01/27 05:34:36;;;;;;;6.90;2.30;;;-0.20;99.90;;;;;;5076805;28;20205;-47
2022/01/27 05:37:02;;;;;;;4.40;3.13;;;-0.10;99.90;;;;;;5066752;28;20240;-54
2022/01/27 05:39:28;;;;;;;3.27;2.97;;;-0.20;99.90;;;;;;5076115;28;20256;-47
2022/01/27 05:41:54;;;;;;;10.90;5.10;;;-0.20;99.90;;;;;;5067601;28;20208;-60
2022/01/27 05:44:20;;;;;;;5.40;4.23;;;-0.10;99.90;;;;;;5072016;28;20175;-50
2022/01/27 05:46:45;;;;;;;4.60;2.03;;;-0.20;99.90;;;;;;5070576;28;20214;-53
2022/01/27 05:49:11;;;;;;;7.13;3.50;;;-0.20;99.90;;;;;;5078017;28;20223;-57
2022/01/27 05:51:37;;;;;;;4.43;2.30;;;-0.20;99.90;;;;;;5063796;28;20174;-57
2022/01/27 05:54:03;;;;;;;7.17;2.53;;;-0.20;99.90;;;;;;5063874;28;20189;-50
2022/01/27 05:56:29;;;;;;;4.10;3.70;;;-0.30;99.90;;;;;;5060639;28;20178;-53
2022/01/27 05:58:57;;;;;;;4.03;3.47;;;-0.20;99.90;;;;;;5079573;28;20192;-53
2022/01/27 06:01:23;;;;;;;8.43;4.37;;;-0.20;99.90;;;;;;5062095;28;20178;-48
2022/01/27 06:03:49;;;;;;;2.27;1.87;;;-0.20;99.90;;;;;;5078289;28;20167;-61
2022/01/27 06:06:15;;;;;;;3.07;2.67;;;-0.30;99.90;;;;;;5063454;28;20225;-52
2022/01/27 06:08:41;;;;;;;8.37;3.60;;;-0.20;99.90;;;;;;5064013;28;20272;-55
2022/01/27 06:11:06;;;;;;;5.80;2.23;;;-0.40;99.90;;;;;;5057572;28;20217;-61
2022/01/27 06:13:32;;;;;;;7.73;4.03;;;-0.30;99.90;;;;;;5064390;28;20182;-61
2022/01/27 06:15:58;;;;;;;3.83;3.10;;;-0.40;99.90;;;;;;5062899;28;20178;-62
2022/01/27 06:18:24;;;;;;;4.43;2.40;;;-0.40;99.90;;;;;;5068381;28;20186;-60
2022/01/27 06:20:49;;;;;;;1.77;1.67;;;-0.40;99.90;;;;;;5063176;28;20242;-57
2022/01/27 06:23:15;;;;;;;5.90;1.90;;;-0.40;99.90;;;;;;5076861;28;20277;-58
2022/01/27 06:25:42;;;;;;;3.63;3.33;;;-0.30;99.90;;;;;;5060814;28;20257;-56
2022/01/27 06:28:07;;;;;;;7.57;3.77;;;-0.30;99.90;;;;;;5081697;28;20174;-57
2022/01/27 06:30:36;;;;;;;7.40;3.40;;;-0.20;99.90;;;;;;5060824;28;20193;-54
2022/01/27 06:33:04;;;;;;;4.30;3.90;;;-0.20;99.90;;;;;;5065541;28;20258;-56
2022/01/27 06:35:30;;;;;;;2.53;2.43;;;-0.20;99.90;;;;;;5062627;28;20197;-54
2022/01/27 06:37:56;;;;;;;3.83;2.93;;;-0.30;99.90;;;;;;5054684;28;20214;-58
2022/01/27 06:40:22;;;;;;;3.07;2.83;;;-0.20;99.90;;;;;;5055992;28;20313;-52
2022/01/27 06:42:47;;;;;;;9.80;3.03;;;-0.10;99.90;;;;;;5054151;28;20180;-57
2022/01/27 06:45:14;;;;;;;6.53;2.87;;;-0.10;99.90;;;;;;5062608;28;20210;-56
2022/01/27 06:47:40;;;;;;;3.23;2.53;;;-0.10;99.90;;;;;;5055065;28;21332;-57
2022/01/27 06:50:07;;;;;;;5.13;3.93;;;-0.20;99.90;;;;;;5056637;28;20179;-62
2022/01/27 06:52:33;;;;;;;15.03;4.70;;;-0.40;99.90;;;;;;5053227;28;20182;-57
2022/01/27 06:55:02;;;;;;;5.83;3.17;;;-0.30;99.90;;;;;;5055790;28;20273;-62
2022/01/27 06:57:28;;;;;;;7.77;3.60;;;-0.20;99.90;;;;;;5058499;28;20182;-52
2022/01/27 06:59:54;;;;;;;4.87;2.17;;;-0.30;99.90;;;;;;5047752;28;20185;-54
2022/01/27 07:02:19;;;;;;;2.93;2.63;;;-0.40;99.90;;;;;;5050121;28;20187;-51
2022/01/27 07:04:45;;;;;;;3.43;3.13;;;-0.40;99.90;;;;;;5055097;28;20186;-56
2022/01/27 07:07:12;;;;;;;6.40;2.60;;;-0.40;99.90;;;;;;5051869;28;20241;-60
2022/01/27 07:09:39;;;;;;;5.87;3.23;;;-0.40;99.90;;;;;;5063660;28;20278;-49
2022/01/27 07:12:05;;;;;;;5.23;3.03;;;-0.30;99.90;;;;;;5049940;28;20262;-60
2022/01/27 07:14:33;;;;;;;4.87;2.33;;;-0.30;99.90;;;;;;5061403;28;20255;-54
2022/01/27 07:16:59;;;;;;;5.20;3.40;;;-0.40;99.90;;;;;;5050020;28;20194;-65
2022/01/27 07:19:25;;;;;;;4.27;3.30;;;-0.40;99.90;;;;;;5057797;28;20213;-54
2022/01/27 07:21:51;;;;;;;5.60;3.40;;;-0.40;99.90;;;;;;5049614;28;20183;-59
2022/01/27 07:24:16;;;;;;;2.53;2.43;;;-0.40;99.90;;;;;;5059949;28;20177;-59
2022/01/27 07:26:42;;;;;;;8.10;3.10;;;-0.40;99.90;;;;;;5069159;28;20217;-52
2022/01/27 07:29:08;;;;;;;7.37;3.87;;;-0.30;99.90;;;;;;5064721;28;20188;-49
2022/01/27 07:31:34;;;;;;;3.90;2.97;;;-0.30;99.90;;;;;;5056939;28;20178;-57
2022/01/27 07:34:00;;;;;;;3.73;3.40;;;-0.30;99.90;;;;;;5063102;28;20205;-57
2022/01/27 07:36:28;;;;;;;9.80;4.10;;;-0.30;99.90;;;;;;5062834;28;20182;-55
2022/01/27 07:38:54;;;;;;;2.90;2.17;;;-0.20;99.90;;;;;;5063831;28;20268;-58
2022/01/27 07:41:20;;;;;;;4.43;2.17;;;-0.20;99.90;;;;;;5057941;28;20178;-60
2022/01/27 07:43:47;;;;;;;6.60;5.03;;;-0.10;99.90;;;;;;5064913;28;20173;-49
2022/01/27 07:46:13;;;;;;;2.83;2.30;;;0.00;99.90;;;;;;5060831;28;20346;-53
2022/01/27 07:48:42;;;;;;;3.07;2.50;;;-0.10;99.90;;;;;;5065019;28;20239;-53
2022/01/27 07:51:09;;;;;;;5.70;3.93;;;-0.10;99.90;;;;;;5058230;28;20186;-57
2022/01/27 07:53:36;;;;;;;4.40;2.43;;;-0.10;99.90;;;;;;5078709;28;20185;-53
2022/01/27 07:56:03;;;;;;;4.73;3.70;;;-0.10;99.90;;;;;;5062369;28;20190;-54
2022/01/27 07:58:31;;;;;;;5.67;3.20;;;-0.20;99.90;;;;;;5063827;28;20185;-58
2022/01/27 08:00:57;;;;;;;5.93;3.23;;;-0.10;99.90;;;;;;5052345;28;20184;-58
2022/01/27 08:03:23;;;;;;;2.80;2.57;;;0.10;99.90;;;;;;5052509;28;20289;-54
2022/01/27 08:05:49;;;;;;;4.93;2.33;;;0.00;99.90;;;;;;5052473;28;20330;-53
2022/01/27 08:08:15;;;;;;;6.73;3.70;;;-0.10;99.90;;;;;;5058566;28;20182;-55
2022/01/27 08:10:40;;;;;;;7.27;3.20;;;-0.10;99.90;;;;;;5049361;28;20189;-56
2022/01/27 08:13:07;;;;;;;2.50;2.40;;;-0.10;99.90;;;;;;5045977;28;20190;-54
2022/01/27 08:15:33;;;;;;;5.17;2.53;;;-0.10;99.90;;;;;;5060635;28;20178;-54
2022/01/27 08:18:00;;;;;;;7.70;3.57;;;0.00;99.90;;;;;;5066004;28;20178;-57
2022/01/27 08:20:26;;;;;;;3.50;3.20;;;-0.20;99.90;;;;;;5064888;28;20213;-58
2022/01/27 08:22:54;;;;;;;10.83;4.73;;;-0.30;99.90;;;;;;5049981;28;20288;-55
2022/01/27 08:25:21;;;;;;;7.47;4.37;;;-0.10;99.90;;;;;;5053653;28;20199;-61
2022/01/27 08:27:49;;;;;;;4.43;2.57;;;-0.10;99.90;;;;;;5059512;28;20248;-56
2022/01/27 08:30:17;;;;;;;4.67;3.10;;;0.00;99.90;;;;;;5062144;28;20186;-57
2022/01/27 08:32:59;;;;;;;6.43;4.00;;;0.10;99.90;;;;;;5046347;28;20301;-53
2022/01/27 08:35:25;;;;;;;7.73;4.63;;;-0.10;99.90;;;;;;5052482;28;20193;-51
2022/01/27 08:37:52;;;;;;;3.93;3.60;;;-0.10;99.90;;;;;;5058488;28;20190;-52
2022/01/27 08:40:18;;;;;;;4.70;3.07;;;-0.10;99.90;;;;;;5064129;28;20226;-56
2022/01/27 08:42:45;;;;;;;3.60;2.07;;;0.10;99.90;;;;;;5048773;28;20273;-54
2022/01/27 08:45:14;;;;;;;6.80;3.77;;;0.00;99.90;;;;;;5050588;28;20275;-56
2022/01/27 08:47:40;;;;;;;7.33;3.27;;;0.10;99.90;;;;;;5060758;28;20212;-56
2022/01/27 08:50:08;;;;;;;9.77;4.03;;;0.20;99.90;;;;;;5074169;28;20208;-55
2022/01/27 08:52:35;;;;;;;5.23;3.30;;;0.30;99.90;;;;;;5078120;28;20209;-62
2022/01/27 08:55:01;;;;;;;3.87;2.60;;;0.10;99.90;;;;;;5064148;28;20181;-57
2022/01/27 08:57:27;;;;;;;5.63;2.57;;;0.10;99.90;;;;;;5066335;28;20224;-58
2022/01/27 08:59:53;;;;;;;5.63;3.37;;;0.20;99.90;;;;;;5058126;28;20232;-59
2022/01/27 09:02:20;;;;;;;7.63;3.57;;;0.20;99.90;;;;;;5051834;28;20268;-54
2022/01/27 09:04:46;;;;;;;7.43;3.67;;;0.20;99.90;;;;;;5054127;28;20190;-58
2022/01/27 09:07:12;;;;;;;5.97;3.77;;;0.10;99.90;;;;;;5054772;28;20213;-59
2022/01/27 09:09:38;;;;;;;6.50;3.07;;;0.10;99.90;;;;;;5066038;28;20170;-56
2022/01/27 09:12:04;;;;;;;6.83;2.20;;;0.20;99.90;;;;;;5062117;28;20186;-56
2022/01/27 09:14:31;;;;;;;4.40;3.93;;;0.20;99.90;;;;;;5068609;28;20273;-55
2022/01/27 09:16:58;;;;;;;9.00;4.50;;;0.40;99.90;;;;;;5070340;28;20239;-56
2022/01/27 09:19:26;;;;;;;4.97;3.37;;;0.40;99.90;;;;;;5069444;28;20181;-53
2022/01/27 09:21:55;;;;;;;7.50;4.70;;;0.30;99.90;;;;;;5059668;28;20183;-58
2022/01/27 09:24:37;;;;;;;8.60;3.90;;;0.10;99.90;;;;;;5068760;28;20185;-54
2022/01/27 09:27:03;;;;;;;2.40;2.20;;;0.10;99.90;;;;;;5066379;28;20252;-57
2022/01/27 09:29:29;;;;;;;7.33;2.87;;;0.10;99.90;;;;;;5068372;28;20178;-57
2022/01/27 09:31:58;;;;;;;6.40;4.60;;;0.20;99.90;;;;;;5059772;28;20174;-50
2022/01/27 09:34:24;;;;;;;6.30;2.80;;;0.00;99.90;;;;;;5065221;28;20190;-49
2022/01/27 09:36:51;;;;;;;7.57;2.83;;;0.10;99.90;;;;;;5068877;28;20206;-58
2022/01/27 09:39:19;;;;;;;4.93;3.20;;;0.10;99.90;;;;;;5064708;28;20229;-55
2022/01/27 09:41:46;;;;;;;8.00;4.43;;;0.10;99.90;;;;;;5061953;28;20186;-52
2022/01/27 09:44:15;;;;;;;6.40;4.13;;;0.10;99.90;;;;;;5067884;28;20174;-54
2022/01/27 09:46:44;;;;;;;8.80;3.27;;;0.00;99.90;;;;;;5061983;28;20214;-58
2022/01/27 09:49:17;;;;;;;8.20;3.53;;;0.10;99.90;;;;;;5081186;28;20194;-60
2022/01/27 09:51:45;;;;;;;5.43;3.33;;;0.20;99.90;;;;;;5051601;28;20193;-51
2022/01/27 09:54:16;;;;;;;4.80;2.67;;;0.30;99.90;;;;;;5066454;28;20181;-53
2022/01/27 09:56:43;;;;;;;9.70;4.23;;;0.20;99.90;;;;;;5060375;28;20179;-59
2022/01/27 09:59:09;;;;;;;9.07;3.43;;;0.20;99.90;;;;;;5059189;28;20190;-50
2022/01/27 10:01:37;;;;;;;5.07;3.03;;;0.30;99.90;;;;;;5059539;28;20175;-56
2022/01/27 10:04:07;;;;;;;3.53;2.13;;;0.40;99.90;;;;;;5064033;28;20184;-52
2022/01/27 10:06:35;;;;;;;5.43;2.80;;;0.40;99.90;;;;;;5067177;28;20309;-52
2022/01/27 10:09:15;;;;;;;5.43;2.33;;;0.40;99.90;;;;;;5066110;28;20180;-62
2022/01/27 10:11:42;;;;;;;7.30;3.73;;;0.50;99.90;;;;;;5062801;28;20221;-50
2022/01/27 10:14:32;;;;;;;12.20;3.70;;;0.50;99.90;;;;;;5063686;28;20186;-53
2022/01/27 10:17:00;;;;;;;10.97;2.50;;;0.50;99.90;;;;;;5062351;28;20190;-56
2022/01/27 10:19:26;;;;;;;6.27;3.30;;;0.40;99.90;;;;;;5063007;28;20181;-53
2022/01/27 10:22:00;;;;;;;7.13;4.07;;;0.20;99.90;;;;;;5053393;28;20201;-51
2022/01/27 10:24:29;;;;;;;7.37;3.80;;;0.30;99.90;;;;;;5064692;28;20186;-59
2022/01/27 10:27:32;;;;;;;9.77;4.47;;;0.30;99.90;;;;;;5053453;28;20213;-56
2022/01/27 10:32:43;;;;;;;6.77;3.27;;;0.30;99.90;;;;;;5064597;28;20283;-55
2022/01/27 10:35:12;;;;;;;8.37;3.00;;;0.30;99.90;;;;;;5063050;28;20194;-52
2022/01/27 10:37:56;;;;;;;5.73;2.47;;;0.20;99.90;;;;;;5056849;28;20308;-57
2022/01/27 10:40:24;;;;;;;5.57;3.60;;;0.40;99.90;;;;;;5053089;28;20226;-59
2022/01/27 10:43:04;;;;;;;16.87;4.13;;;0.40;99.90;;;;;;5055800;28;20221;-51
2022/01/27 10:45:30;;;;;;;7.93;3.40;;;0.40;99.90;;;;;;5066119;28;20182;-51
2022/01/27 10:48:15;;;;;;;4.43;3.80;;;0.50;99.90;;;;;;5056716;28;20236;-58
2022/01/27 10:50:48;;;;;;;5.10;2.77;;;0.50;99.90;;;;;;5050334;28;20224;-50
2022/01/27 10:53:14;;;;;;;7.77;3.23;;;0.50;99.90;;;;;;5081544;28;20186;-59
2022/01/27 10:55:41;;;;;;;3.47;2.63;;;0.40;99.90;;;;;;5066438;28;20235;-54
2022/01/27 10:58:33;;;;;;;3.93;3.00;;;0.50;99.90;;;;;;5065208;28;20174;-59
2022/01/27 11:01:00;;;;;;;7.97;4.20;;;0.60;99.90;;;;;;5097258;28;20198;-60
2022/01/27 11:03:28;;;;;;;10.07;4.73;;;0.70;99.90;;;;;;5069179;28;20185;-52
2022/01/27 11:05:56;;;;;;;5.50;3.93;;;0.70;99.90;;;;;;5066766;28;20182;-54
2022/01/27 11:08:24;;;;;;;6.40;4.27;;;0.80;99.90;;;;;;5068136;28;20178;-54
2022/01/27 11:10:51;;;;;;;5.73;3.77;;;0.70;99.90;;;;;;5067006;28;20236;-53
2022/01/27 11:13:19;;;;;;;4.03;3.33;;;0.60;99.90;;;;;;5065407;28;20177;-53
2022/01/27 11:15:46;;;;;;;6.47;3.90;;;0.50;99.90;;;;;;5066939;28;20178;-47
2022/01/27 11:18:16;;;;;;;10.20;4.00;;;0.60;99.90;;;;;;5065619;28;20185;-60
2022/01/27 11:23:48;;;;;;;8.63;4.23;;;0.60;99.90;;;;;;5082301;28;20189;-57
2022/01/27 11:26:09;;;;;;;10.30;4.37;;;0.70;99.90;;;;;;5082811;28;20216;-52
2022/01/27 11:28:36;;;;;;;7.77;2.87;;;0.50;99.90;;;;;;5066861;28;20221;-53
2022/01/27 11:31:33;;;;;;;9.27;3.83;;;0.60;99.90;;;;;;5065119;28;20196;-53
2022/01/27 11:34:05;;;;;;;4.93;4.10;;;0.60;99.90;;;;;;5067863;28;20285;-54
2022/01/27 11:36:31;;;;;;;4.47;2.50;;;0.60;99.90;;;;;;5065667;28;20196;-54
2022/01/27 11:38:59;;;;;;;5.83;3.47;;;0.60;99.90;;;;;;5066399;28;20220;-52
2022/01/27 11:41:41;;;;;;;6.30;3.00;;;0.50;99.90;;;;;;5066017;28;20284;-47
2022/01/27 11:44:28;;;;;;;6.87;2.80;;;0.30;99.90;;;;;;5064780;28;20192;-56
2022/01/27 11:47:10;;;;;;;6.37;2.73;;;0.40;99.90;;;;;;5066612;28;20206;-53
2022/01/27 11:49:45;;;;;;;7.30;3.53;;;0.30;99.90;;;;;;5065636;28;20247;-53
2022/01/27 11:52:32;;;;;;;6.40;2.70;;;0.50;99.90;;;;;;5066559;28;20185;-51
2022/01/27 11:55:23;;;;;;;7.20;2.57;;;0.40;99.90;;;;;;5067250;28;20343;-49
2022/01/27 11:57:56;;;;;;;7.13;3.63;;;0.30;99.90;;;;;;5059715;28;20190;-58
2022/01/27 12:00:28;;;;;;;5.80;2.53;;;0.20;99.90;;;;;;5066803;28;20201;-55
2022/01/27 12:02:57;;;;;;;5.40;3.63;;;0.20;99.90;;;;;;5066626;28;20201;-55
2022/01/27 12:05:23;;;;;;;10.70;3.77;;;0.20;99.90;;;;;;5065509;28;20242;-57
2022/01/27 12:08:20;;;;;;;3.90;2.37;;;0.10;99.90;;;;;;5066371;28;20281;-53
2022/01/27 12:10:53;;;;;;;4.63;3.47;;;0.10;99.90;;;;;;5065024;28;20217;-58
2022/01/27 12:13:49;;;;;;;6.10;2.27;;;0.10;99.90;;;;;;5066880;28;20194;-51
2022/01/27 12:19:09;;;;;;;5.20;3.50;;;0.10;99.90;;;;;;5081463;28;20187;-46
2022/01/27 12:21:39;;;;;;;5.67;2.60;;;0.30;99.90;;;;;;5066743;28;20253;-56
2022/01/27 12:24:15;;;;;;;5.07;3.43;;;0.30;99.90;;;;;;5065570;28;20282;-57
2022/01/27 12:26:48;;;;;;;6.87;2.83;;;0.20;99.90;;;;;;5066034;28;20228;-54
2022/01/27 12:29:30;;;;;;;21.00;4.93;;;0.20;99.90;;;;;;5083151;28;20182;-53
2022/01/27 12:31:59;;;;;;;8.77;4.87;;;0.10;99.90;;;;;;5064394;28;20293;-53
2022/01/27 12:34:25;;;;;;;5.57;3.97;;;0.00;99.90;;;;;;5067029;28;20190;-61
2022/01/27 12:36:54;;;;;;;6.83;2.87;;;0.00;99.90;;;;;;5064997;28;20185;-57
2022/01/27 12:39:22;;;;;;;11.57;4.60;;;0.10;99.90;;;;;;5083097;28;20351;-51
2022/01/27 12:41:49;;;;;;;5.47;3.13;;;0.20;99.90;;;;;;5067709;28;20220;-59
2022/01/27 12:44:15;;;;;;;7.07;3.53;;;0.20;99.90;;;;;;5069121;28;20186;-58
2022/01/27 12:47:04;;;;;;;6.10;3.10;;;0.20;99.90;;;;;;5069642;28;20222;-54
2022/01/27 12:49:35;;;;;;;9.27;3.40;;;0.10;99.90;;;;;;5068011;28;20182;-55
2022/01/27 12:52:05;;;;;;;7.80;3.73;;;0.20;99.90;;;;;;5069867;28;20186;-54
2022/01/27 12:54:30;;;;;;;12.93;5.53;;;0.10;99.90;;;;;;5068688;28;20200;-53
2022/01/27 12:56:56;;;;;;;7.23;4.20;;;0.00;99.90;;;;;;5069645;28;20277;-56
2022/01/27 12:59:22;;;;;;;9.43;2.67;;;0.10;99.90;;;;;;5069788;28;20207;-55
2022/01/27 13:02:03;;;;;;;5.90;3.27;;;0.10;99.90;;;;;;5068693;28;20273;-55
2022/01/27 13:04:29;;;;;;;7.27;3.37;;;0.10;99.90;;;;;;5069301;28;20170;-51
2022/01/27 13:06:57;;;;;;;4.07;1.77;;;0.20;99.90;;;;;;5066027;28;20225;-48
2022/01/27 13:09:23;;;;;;;9.63;3.13;;;0.20;99.90;;;;;;5068526;28;20182;-50
2022/01/27 13:11:52;;;;;;;4.27;2.20;;;0.20;99.90;;;;;;5066951;28;20274;-50
2022/01/27 13:14:18;;;;;;;3.67;2.30;;;0.20;99.90;;;;;;5067582;28;20185;-49
2022/01/27 13:16:50;;;;;;;5.77;3.83;;;0.20;99.90;;;;;;5082701;28;20186;-49
2022/01/27 13:19:25;;;;;;;7.77;2.53;;;0.20;99.90;;;;;;5066151;28;20174;-49
2022/01/27 13:22:08;;;;;;;5.73;2.73;;;0.20;99.90;;;;;;5100097;28;20185;-51
2022/01/27 13:24:44;;;;;;;7.93;3.80;;;0.10;99.90;;;;;;5067005;28;20599;-54
2022/01/27 13:27:12;;;;;;;6.13;2.53;;;0.10;99.90;;;;;;5068011;28;20209;-55
2022/01/27 13:29:43;;;;;;;5.67;3.10;;;0.20;99.90;;;;;;5055402;28;20190;-54
2022/01/27 13:32:10;;;;;;;5.33;2.73;;;0.20;99.90;;;;;;5078455;28;20182;-51
2022/01/27 13:34:47;;;;;;;7.87;2.63;;;0.40;99.90;;;;;;5060207;28;20195;-50
2022/01/27 13:37:13;;;;;;;3.23;1.50;;;0.30;99.90;;;;;;5062843;28;20197;-53